createdAt,value
2019-03-01T00:02:30.256Z,99890.98
2019-03-01T00:05:44.648Z,99882.20
2019-03-01T00:08:55.175Z,99887.48
2019-03-01T00:11:52.120Z,99879.25
2019-03-01T00:14:56.714Z,99884.88
2019-03-01T00:18:20.110Z,99882.84
2019-03-01T00:21:38.665Z,99880.25
2019-03-01T00:24:50.975Z,99874.39
2019-03-01T00:28:14.182Z,99872.13
2019-03-01T00:31:43.984Z,99871.64
2019-03-01T00:35:20.349Z,99874.62
2019-03-01T00:38:25.740Z,99869.02
2019-03-01T00:41:50.024Z,99859.89
2019-03-01T00:44:41.263Z,99859.83
2019-03-01T00:47:27.162Z,99856.01
2019-03-01T00:50:13.115Z,99846.95
2019-03-01T00:52:59.036Z,99843.77
2019-03-01T00:55:45.248Z,99837.55
2019-03-01T00:58:31.395Z,99833.59
2019-03-01T01:01:17.056Z,99831.02
2019-03-01T01:04:03.412Z,99835.13
2019-03-01T01:06:49.282Z,99833.00
2019-03-01T01:09:35.076Z,99828.81
2019-03-01T01:12:21.415Z,99817.30
2019-03-01T01:15:07.557Z,99822.41
2019-03-01T01:17:53.324Z,99817.06
2019-03-01T01:20:39.471Z,99808.41
2019-03-01T01:23:25.260Z,99811.37
2019-03-01T01:26:11.756Z,99807.12
2019-03-01T01:28:57.995Z,99803.70
2019-03-01T01:31:43.498Z,99802.27
2019-03-01T01:34:29.431Z,99805.02
2019-03-01T01:37:15.498Z,99797.78
2019-03-01T01:40:01.253Z,99790.39
2019-03-01T01:42:47.242Z,99786.44
2019-03-01T01:45:33.276Z,99790.75
2019-03-01T01:48:19.055Z,99793.63
2019-03-01T01:51:05.068Z,99790.02
2019-03-01T01:53:51.236Z,99786.33
2019-03-01T01:56:37.086Z,99785.33
2019-03-01T01:59:23.344Z,99783.05
2019-03-01T02:02:09.316Z,99786.09
2019-03-01T02:04:54.978Z,99781.40
2019-03-01T02:07:40.768Z,99780.13
2019-03-01T02:10:27.099Z,99778.73
2019-03-01T02:13:13.172Z,99782.18
2019-03-01T02:15:59.263Z,99777.81
2019-03-01T02:18:45.499Z,99777.28
2019-03-01T02:21:31.161Z,99779.81
2019-03-01T02:24:16.870Z,99771.28
2019-03-01T02:27:30.572Z,99766.72
2019-03-01T02:30:18.663Z,99761.69
2019-03-01T02:33:04.800Z,99763.92
2019-03-01T02:35:50.483Z,99758.43
2019-03-01T02:38:36.311Z,99761.12
2019-03-01T02:41:22.170Z,99755.17
2019-03-01T02:44:07.719Z,99755.55
2019-03-01T02:46:53.496Z,99748.05
2019-03-01T02:49:40.033Z,99753.56
2019-03-01T02:52:25.731Z,99748.38
2019-03-01T02:55:12.845Z,99752.73
2019-03-01T02:57:59.131Z,99748.84
2019-03-01T03:00:44.661Z,99750.64
2019-03-01T03:03:30.781Z,99745.65
2019-03-01T03:06:35.058Z,99742.14
2019-03-01T03:09:21.142Z,99737.55
2019-03-01T03:12:07.055Z,99739.21
2019-03-01T03:14:53.178Z,99733.70
2019-03-01T03:17:38.702Z,99732.14
2019-03-01T03:20:24.609Z,99727.41
2019-03-01T03:23:10.699Z,99729.63
2019-03-01T03:25:56.654Z,99730.70
2019-03-01T03:28:42.539Z,99730.41
2019-03-01T03:31:28.775Z,99733.09
2019-03-01T03:34:14.544Z,99730.17
2019-03-01T03:37:00.299Z,99733.02
2019-03-01T03:39:46.665Z,99737.10
2019-03-01T03:42:32.818Z,99739.28
2019-03-01T03:45:18.821Z,99737.08
2019-03-01T03:48:04.927Z,99740.94
2019-03-01T03:50:50.553Z,99733.88
2019-03-01T03:53:36.543Z,99730.72
2019-03-01T03:56:23.315Z,99735.69
2019-03-01T03:59:09.322Z,99728.59
2019-03-01T04:01:55.131Z,99732.63
2019-03-01T04:04:41.413Z,99733.98
2019-03-01T04:07:27.298Z,99731.94
2019-03-01T04:10:13.067Z,99727.35
2019-03-01T04:12:59.282Z,99727.56
2019-03-01T04:15:45.091Z,99727.96
2019-03-01T04:18:31.098Z,99724.52
2019-03-01T04:21:17.149Z,99732.41
2019-03-01T04:24:02.783Z,99725.38
2019-03-01T04:26:48.818Z,99727.31
2019-03-01T04:29:35.250Z,99722.12
2019-03-01T04:32:20.940Z,99727.64
2019-03-01T04:35:06.820Z,99729.94
2019-03-01T04:37:52.931Z,99720.61
2019-03-01T04:40:39.196Z,99714.59
2019-03-01T04:43:24.900Z,99723.28
2019-03-01T04:46:11.346Z,99720.63
2019-03-01T04:48:57.360Z,99721.02
2019-03-01T04:51:43.190Z,99727.13
2019-03-01T04:54:29.322Z,99723.46
2019-03-01T04:57:14.777Z,99720.53
2019-03-01T05:00:00.745Z,99709.97
2019-03-01T05:02:47.478Z,99715.88
2019-03-01T05:05:33.302Z,99714.31
2019-03-01T05:08:19.189Z,99718.12
2019-03-01T05:11:05.441Z,99718.88
2019-03-01T05:13:51.003Z,99714.99
2019-03-01T05:16:36.970Z,99711.50
2019-03-01T05:19:23.280Z,99716.55
2019-03-01T05:22:09.411Z,99715.35
2019-03-01T05:24:55.298Z,99715.88
2019-03-01T05:27:41.065Z,99716.25
2019-03-01T05:30:27.169Z,99708.91
2019-03-01T05:33:13.105Z,99718.84
2019-03-01T05:35:59.497Z,99715.47
2019-03-01T05:38:45.594Z,99716.48
2019-03-01T05:41:31.774Z,99715.35
2019-03-01T05:44:17.842Z,99715.84
2019-03-01T05:47:03.730Z,99719.50
2019-03-01T05:49:49.528Z,99721.73
2019-03-01T05:52:35.807Z,99721.98
2019-03-01T05:55:21.598Z,99728.50
2019-03-01T05:59:01.681Z,99736.36
2019-03-01T06:02:16.409Z,99737.56
2019-03-01T06:05:12.068Z,99744.67
2019-03-01T06:08:10.710Z,99739.36
2019-03-01T06:11:18.238Z,99743.67
2019-03-01T06:14:44.118Z,99746.78
2019-03-01T06:18:02.706Z,99740.36
2019-03-01T06:21:24.842Z,99743.27
2019-03-01T06:24:45.616Z,99749.33
2019-03-01T06:28:05.887Z,99748.05
2019-03-01T06:31:18.677Z,99750.11
2019-03-01T06:34:29.926Z,99753.97
2019-03-01T06:37:27.384Z,99758.02
2019-03-01T06:40:39.411Z,99757.11
2019-03-01T06:44:06.852Z,99755.78
2019-03-01T06:47:13.658Z,99759.78
2019-03-01T06:50:22.178Z,99755.02
2019-03-01T06:53:07.951Z,99751.55
2019-03-01T06:56:01.522Z,99758.38
2019-03-01T06:58:49.555Z,99756.25
2019-03-01T07:01:41.508Z,99759.48
2019-03-01T07:04:27.402Z,99757.79
2019-03-01T07:07:13.073Z,99755.60
2019-03-01T07:09:59.059Z,99763.55
2019-03-01T07:12:44.894Z,99759.61
2019-03-01T07:15:30.729Z,99763.18
2019-03-01T07:18:16.661Z,99772.37
2019-03-01T07:21:02.842Z,99785.77
2019-03-01T07:23:48.487Z,99786.25
2019-03-01T07:26:34.814Z,99785.32
2019-03-01T07:29:20.930Z,99783.38
2019-03-01T07:32:07.352Z,99786.13
2019-03-01T07:34:53.423Z,99790.02
2019-03-01T07:37:39.047Z,99799.38
2019-03-01T07:40:24.965Z,99805.92
2019-03-01T07:43:11.083Z,99806.19
2019-03-01T07:45:57.119Z,99809.27
2019-03-01T07:48:43.011Z,99803.23
2019-03-01T07:51:30.743Z,99811.64
2019-03-01T07:54:18.093Z,99814.20
2019-03-01T07:57:03.829Z,99814.86
2019-03-01T07:59:50.018Z,99815.78
2019-03-01T08:02:39.489Z,99819.94
2019-03-01T08:05:23.196Z,99824.45
2019-03-01T08:08:09.671Z,99828.27
2019-03-01T08:10:56.411Z,99831.97
2019-03-01T08:13:43.257Z,99833.53
2019-03-01T08:16:29.551Z,99833.71
2019-03-01T08:19:17.092Z,99836.19
2019-03-01T08:22:03.223Z,99845.18
2019-03-01T08:24:49.596Z,99845.86
2019-03-01T08:27:35.644Z,99858.88
2019-03-01T08:30:21.531Z,99853.37
2019-03-01T08:33:08.250Z,99853.39
2019-03-01T08:35:54.096Z,99857.84
2019-03-01T08:38:40.240Z,99869.20
2019-03-01T08:41:26.362Z,99868.75
2019-03-01T08:44:11.823Z,99872.75
2019-03-01T08:46:58.193Z,99874.77
2019-03-01T08:49:44.233Z,99867.42
2019-03-01T08:52:30.369Z,99878.05
2019-03-01T08:55:17.165Z,99883.62
2019-03-01T08:58:06.872Z,99885.41
2019-03-01T09:00:59.333Z,99883.59
2019-03-01T09:03:42.766Z,99887.09
2019-03-01T09:06:29.150Z,99884.88
2019-03-01T09:09:17.616Z,99892.19
2019-03-01T09:12:02.410Z,99893.19
2019-03-01T09:14:49.230Z,99890.34
2019-03-01T09:17:35.177Z,99893.60
2019-03-01T09:20:21.366Z,99893.19
2019-03-01T09:23:19.608Z,99899.85
2019-03-01T09:25:55.410Z,99893.53
2019-03-01T09:28:43.432Z,99896.28
2019-03-01T09:31:29.935Z,99895.05
2019-03-01T09:34:16.781Z,99896.30
2019-03-01T09:37:02.641Z,99896.30
2019-03-01T09:39:50.463Z,99904.72
2019-03-01T09:42:35.926Z,99906.17
2019-03-01T09:45:22.011Z,99906.45
2019-03-01T09:48:08.807Z,99911.88
2019-03-01T09:50:55.738Z,99915.06
2019-03-01T09:53:42.069Z,99923.63
2019-03-01T09:56:28.326Z,99929.69
2019-03-01T09:59:14.245Z,99925.37
2019-03-01T10:02:02.322Z,99921.67
2019-03-01T10:04:48.275Z,99931.41
2019-03-01T10:07:34.594Z,99933.77
2019-03-01T10:10:22.591Z,99940.31
2019-03-01T10:13:08.523Z,99945.45
2019-03-01T10:15:54.755Z,99949.92
2019-03-01T10:18:40.797Z,99954.09
2019-03-01T10:21:27.111Z,99958.45
2019-03-01T10:24:13.463Z,99963.73
2019-03-01T10:26:59.786Z,99955.44
2019-03-01T10:29:45.582Z,99964.66
2019-03-01T10:32:31.958Z,99970.55
2019-03-01T10:35:18.357Z,99969.69
2019-03-01T10:38:03.990Z,99972.75
2019-03-01T10:40:50.001Z,99975.38
2019-03-01T10:43:36.418Z,99978.59
2019-03-01T10:46:22.208Z,99981.13
2019-03-01T10:49:08.440Z,99985.24
2019-03-01T10:51:54.498Z,99976.59
2019-03-01T10:54:40.386Z,99981.75
2019-03-01T10:57:26.708Z,99988.21
2019-03-01T11:00:20.368Z,99987.47
2019-03-01T11:03:05.870Z,99979.20
2019-03-01T11:05:53.044Z,99986.16
2019-03-01T11:08:39.288Z,99985.09
2019-03-01T11:11:25.411Z,99991.26
2019-03-01T11:14:10.904Z,99995.14
2019-03-01T11:16:57.231Z,100004.83
2019-03-01T11:19:43.306Z,100009.74
2019-03-01T11:22:29.354Z,100017.02
2019-03-01T11:25:15.354Z,100028.13
2019-03-01T11:28:01.030Z,100038.56
2019-03-01T11:30:46.946Z,100043.92
2019-03-01T11:33:32.986Z,100042.78
2019-03-01T11:36:20.090Z,100039.84
2019-03-01T11:39:06.110Z,100051.96
2019-03-01T11:41:51.903Z,100053.41
2019-03-01T11:44:38.170Z,100061.67
2019-03-01T11:47:23.859Z,100069.48
2019-03-01T11:50:12.230Z,100067.78
2019-03-01T11:52:57.964Z,100075.09
2019-03-01T11:55:43.942Z,100085.86
2019-03-01T11:58:29.784Z,100087.63
2019-03-01T12:01:17.478Z,100086.75
2019-03-01T12:04:03.843Z,100090.61
2019-03-01T12:06:49.966Z,100089.32
2019-03-01T12:09:36.022Z,100090.20
2019-03-01T12:12:21.663Z,100094.48
2019-03-01T12:15:07.714Z,100101.77
2019-03-01T12:17:53.952Z,100100.48
2019-03-01T12:20:40.000Z,100111.63
2019-03-01T12:23:25.994Z,100100.06
2019-03-01T12:26:12.602Z,100111.19
2019-03-01T12:28:58.503Z,100117.59
2019-03-01T12:31:44.465Z,100116.70
2019-03-01T12:34:30.563Z,100133.44
2019-03-01T12:37:16.723Z,100134.29
2019-03-01T12:40:03.156Z,100143.30
2019-03-01T12:42:49.197Z,100162.55
2019-03-01T12:45:35.357Z,100156.16
2019-03-01T12:48:21.180Z,100163.80
2019-03-01T12:51:06.871Z,100163.81
2019-03-01T12:53:52.436Z,100171.58
2019-03-01T12:56:37.772Z,100168.95
2019-03-01T12:59:23.368Z,100174.13
2019-03-01T13:02:08.839Z,100177.11
2019-03-01T13:04:54.530Z,100177.95
2019-03-01T13:07:40.763Z,100185.58
2019-03-01T13:10:26.893Z,100194.20
2019-03-01T13:13:12.779Z,100185.64
2019-03-01T13:15:58.506Z,100186.60
2019-03-01T13:18:47.556Z,100193.85
2019-03-01T13:21:32.063Z,100192.84
2019-03-01T13:24:17.830Z,100185.11
2019-03-01T13:27:05.946Z,100188.27
2019-03-01T13:29:55.244Z,100188.13
2019-03-01T13:32:39.871Z,100189.02
2019-03-01T13:35:25.946Z,100184.27
2019-03-01T13:38:13.111Z,100182.98
2019-03-01T13:41:01.737Z,100189.03
2019-03-01T13:43:46.061Z,100184.77
2019-03-01T13:46:33.429Z,100187.81
2019-03-01T13:49:19.378Z,100186.09
2019-03-01T13:52:04.814Z,100177.59
2019-03-01T13:54:53.129Z,100182.75
2019-03-01T13:57:39.048Z,100177.11
2019-03-01T14:00:24.491Z,100183.50
2019-03-01T14:03:10.601Z,100189.97
2019-03-01T14:05:56.332Z,100190.77
2019-03-01T14:08:42.578Z,100192.47
2019-03-01T14:11:28.445Z,100193.37
2019-03-01T14:14:13.731Z,100197.59
2019-03-01T14:16:59.027Z,100204.46
2019-03-01T14:19:44.847Z,100213.02
2019-03-01T14:22:30.590Z,100222.02
2019-03-01T14:25:16.006Z,100221.62
2019-03-01T14:28:02.170Z,100224.58
2019-03-01T14:30:49.009Z,100225.00
2019-03-01T14:33:34.376Z,100226.84
2019-03-01T14:36:20.043Z,100225.02
2019-03-01T14:39:14.937Z,100219.02
2019-03-01T14:42:00.535Z,100211.67
2019-03-01T14:44:48.021Z,100215.11
2019-03-01T14:47:35.358Z,100227.50
2019-03-01T14:50:22.148Z,100226.23
2019-03-01T14:53:07.759Z,100224.10
2019-03-01T14:55:58.893Z,100228.80
2019-03-01T14:58:58.906Z,100236.45
2019-03-01T15:02:22.102Z,100241.49
2019-03-01T15:05:16.731Z,100243.13
2019-03-01T15:07:54.765Z,100236.02
2019-03-01T15:10:40.811Z,100242.37
2019-03-01T15:13:27.852Z,100241.58
2019-03-01T15:16:13.434Z,100250.30
2019-03-01T15:18:59.064Z,100258.35
2019-03-01T15:21:44.844Z,100265.70
2019-03-01T15:24:33.275Z,100262.14
2019-03-01T15:27:18.312Z,100263.93
2019-03-01T15:30:09.287Z,100265.94
2019-03-01T15:32:54.648Z,100261.12
2019-03-01T15:35:40.709Z,100268.14
2019-03-01T15:38:27.609Z,100266.41
2019-03-01T15:41:14.512Z,100269.35
2019-03-01T15:44:00.081Z,100268.98
2019-03-01T15:46:46.353Z,100272.81
2019-03-01T15:49:33.174Z,100281.20
2019-03-01T15:52:19.313Z,100276.11
2019-03-01T15:55:07.704Z,100276.98
2019-03-01T15:57:56.392Z,100284.18
2019-03-01T16:00:40.919Z,100288.08
2019-03-01T16:03:26.777Z,100291.37
2019-03-01T16:06:17.200Z,100289.58
2019-03-01T16:09:00.018Z,100297.72
2019-03-01T16:11:46.123Z,100297.72
2019-03-01T16:14:31.412Z,100302.53
2019-03-01T16:17:17.577Z,100315.16
2019-03-01T16:20:05.861Z,100319.73
2019-03-01T16:22:54.037Z,100319.73
2019-03-01T16:25:43.876Z,100321.48
2019-03-01T16:28:31.122Z,100323.84
2019-03-01T16:31:16.976Z,100330.53
2019-03-01T16:34:04.399Z,100338.89
2019-03-01T16:36:53.200Z,100332.20
2019-03-01T16:39:39.068Z,100337.09
2019-03-01T16:42:24.756Z,100340.61
2019-03-01T16:45:11.069Z,100345.44
2019-03-01T16:47:57.062Z,100347.41
2019-03-01T16:50:44.027Z,100353.71
2019-03-01T16:53:30.145Z,100360.80
2019-03-01T16:56:15.829Z,100360.80
2019-03-01T16:59:03.727Z,100361.64
2019-03-01T17:01:48.915Z,100367.45
2019-03-01T17:04:35.005Z,100371.42
2019-03-01T17:07:25.130Z,100383.25
2019-03-01T17:10:10.482Z,100383.89
2019-03-01T17:12:56.667Z,100388.05
2019-03-01T17:15:42.326Z,100388.94
2019-03-01T17:18:28.001Z,100389.13
2019-03-01T17:21:15.866Z,100391.61
2019-03-01T17:24:01.268Z,100394.66
2019-03-01T17:26:47.158Z,100390.81
2019-03-01T17:29:35.766Z,100392.61
2019-03-01T17:32:19.767Z,100401.43
2019-03-01T17:35:06.518Z,100401.43
2019-03-01T17:40:55.674Z,100408.08
2019-03-01T17:43:42.537Z,100403.00
2019-03-01T17:46:29.811Z,100408.25
2019-03-01T17:49:18.508Z,100411.86
2019-03-01T17:52:05.552Z,100408.34
2019-03-01T17:55:04.633Z,100411.67
2019-03-01T17:57:51.785Z,100411.27
2019-03-01T18:00:44.090Z,100404.86
2019-03-01T18:03:31.173Z,100410.13
2019-03-01T18:06:18.123Z,100410.13
2019-03-01T18:09:05.854Z,100409.44
2019-03-01T18:11:51.994Z,100409.44
2019-03-01T18:14:39.105Z,100407.47
2019-03-01T18:17:25.625Z,100409.41
2019-03-01T18:20:25.467Z,100406.13
2019-03-01T18:23:12.438Z,100413.28
2019-03-01T18:25:59.584Z,100402.09
2019-03-01T18:28:48.323Z,100412.53
2019-03-01T18:31:35.619Z,100412.53
2019-03-01T18:34:21.958Z,100418.54
2019-03-01T18:37:19.110Z,100418.30
2019-03-01T18:40:02.759Z,100441.42
2019-03-01T18:42:50.506Z,100441.42
2019-03-01T18:45:41.806Z,100448.19
2019-03-01T18:48:26.419Z,100442.03
2019-03-01T18:51:12.635Z,100442.03
2019-03-01T18:54:00.629Z,100458.17
2019-03-01T18:56:46.942Z,100458.17
2019-03-01T18:59:33.003Z,100451.68
2019-03-01T19:02:19.755Z,100458.33
2019-03-01T19:05:06.864Z,100457.78
2019-03-01T19:07:53.011Z,100456.53
2019-03-01T19:10:40.623Z,100459.31
2019-03-01T19:13:37.492Z,100459.31
2019-03-01T19:16:25.415Z,100467.06
2019-03-01T19:19:13.945Z,100460.47
2019-03-01T19:22:00.378Z,100457.03
2019-03-01T19:24:46.856Z,100456.45
2019-03-01T19:27:34.938Z,100456.45
2019-03-01T19:30:25.271Z,100463.60
2019-03-01T19:33:11.478Z,100455.16
2019-03-01T19:36:00.687Z,100451.49
2019-03-01T19:38:46.521Z,100457.63
2019-03-01T19:41:33.075Z,100453.87
2019-03-01T19:44:19.396Z,100458.89
2019-03-01T19:47:06.022Z,100463.92
2019-03-01T19:49:52.115Z,100463.92
2019-03-01T19:52:38.788Z,100470.17
2019-03-01T19:55:24.903Z,100470.31
2019-03-01T19:58:11.916Z,100477.55
2019-03-01T20:00:59.501Z,100475.45
2019-03-01T20:03:46.297Z,100476.66
2019-03-01T20:06:32.921Z,100474.96
2019-03-01T20:09:19.795Z,100474.96
2019-03-01T20:12:06.284Z,100474.34
2019-03-01T20:14:52.467Z,100474.34
2019-03-01T20:17:44.368Z,100485.53
2019-03-01T20:20:29.995Z,100479.79
2019-03-01T20:23:17.651Z,100479.79
2019-03-01T20:26:03.963Z,100486.23
2019-03-01T20:28:55.339Z,100486.48
2019-03-01T20:31:41.759Z,100492.80
2019-03-01T20:34:28.798Z,100482.77
2019-03-01T20:37:16.876Z,100483.69
2019-03-01T20:40:06.053Z,100485.79
2019-03-01T20:42:55.914Z,100475.50
2019-03-01T20:45:40.957Z,100478.39
2019-03-01T20:48:28.981Z,100481.68
2019-03-01T20:51:17.614Z,100472.27
2019-03-01T20:54:04.477Z,100472.27
2019-03-01T20:56:52.736Z,100473.86
2019-03-01T20:59:39.970Z,100468.98
2019-03-01T21:02:26.192Z,100474.74
2019-03-01T21:05:12.953Z,100474.74
2019-03-01T21:07:59.746Z,100477.36
2019-03-01T21:10:46.809Z,100475.92
2019-03-01T21:13:34.046Z,100475.92
2019-03-01T21:16:22.021Z,100475.10
2019-03-01T21:19:09.648Z,100475.10
2019-03-01T21:21:56.014Z,100481.81
2019-03-01T21:24:43.031Z,100480.20
2019-03-01T21:27:29.214Z,100481.74
2019-03-01T21:30:20.659Z,100472.56
2019-03-01T21:33:05.897Z,100477.19
2019-03-01T21:35:52.269Z,100479.61
2019-03-01T21:38:38.213Z,100477.48
2019-03-01T21:41:26.953Z,100486.99
2019-03-01T21:44:13.630Z,100487.44
2019-03-01T21:46:59.809Z,100485.48
2019-03-01T21:49:48.963Z,100486.09
2019-03-01T21:52:35.296Z,100486.09
2019-03-01T21:55:24.959Z,100491.12
2019-03-01T21:58:11.018Z,100494.23
2019-03-01T22:00:57.485Z,100494.23
2019-03-01T22:03:44.467Z,100496.27
2019-03-01T22:06:31.084Z,100501.17
2019-03-01T22:09:20.688Z,100492.69
2019-03-01T22:12:07.388Z,100492.69
2019-03-01T22:14:53.693Z,100494.16
2019-03-01T22:24:08.244Z,100497.27
2019-03-01T22:26:55.368Z,100503.78
2019-03-01T22:29:43.547Z,100507.11
2019-03-01T22:32:30.103Z,100505.33
2019-03-01T22:35:16.368Z,100509.73
2019-03-01T22:38:04.559Z,100513.23
2019-03-01T22:40:51.052Z,100511.87
2019-03-01T22:43:37.469Z,100511.23
2019-03-01T22:46:25.758Z,100512.01
2019-03-01T22:49:20.645Z,100513.94
2019-03-01T22:52:06.961Z,100511.49
2019-03-01T22:54:53.417Z,100511.49
2019-03-01T22:57:44.725Z,100517.16
2019-03-01T23:01:20.580Z,100515.64
2019-03-01T23:04:06.956Z,100518.95
2019-03-01T23:06:52.901Z,100507.66
2019-03-01T23:09:42.626Z,100510.23
2019-03-01T23:12:30.117Z,100507.30
2019-03-01T23:15:16.228Z,100508.13
2019-03-01T23:18:05.654Z,100512.83
2019-03-01T23:20:51.042Z,100515.87
2019-03-01T23:23:39.049Z,100507.16
2019-03-01T23:26:26.627Z,100504.25
2019-03-01T23:29:15.614Z,100498.53
2019-03-01T23:32:01.069Z,100495.36
2019-03-01T23:34:47.805Z,100494.63
2019-03-01T23:37:35.624Z,100497.84
2019-03-01T23:40:21.873Z,100504.28
2019-03-01T23:43:10.823Z,100499.05
2019-03-01T23:45:56.727Z,100498.23
2019-03-01T23:48:45.587Z,100496.53
2019-03-01T23:51:30.668Z,100496.53
2019-03-01T23:54:16.583Z,100494.91
2019-03-01T23:57:05.703Z,100491.35
2019-03-01T23:59:50.773Z,100488.80
